Aviation Digital Data Service (ADDS)

Output produced by METARs form (0534 UTC 26 February 2017)
found at http://aviationweather.gov/adds/metars/
 
KCAR 252323Z 2600/2624 15008KT 1/4SM FG VV002 WS020/18040KT 
     FM260500 15012KT 1/2SM -SHRA FG OVC003 WS020/17045KT 
     FM260700 16010G16KT 2SM -SHRA BR OVC005 
     FM261000 26010KT 2SM -SHRASN OVC010 
     FM261300 27012G18KT P6SM OVC030 
     FM261700 27015G25KT P6SM BKN035